Time;durP1;ratioP1;P1;durP2;ratioP2;P2;SDS_P1;SDS_P2;PMS_P1;PMS_P2;Temp;Humidity;BMP_temperature;BMP_pressure;BME280_temperature;BME280_humidity;BME280_pressure;Samples;Min_cycle;Max_cycle;Signal;HPM_P1;HPM_P2
2023/04/08 00:01:01;;;;;;;39.97;28.10;;;;;;;8.36;nan;102209.59;5014346;28;20143;-43
2023/04/08 00:03:27;;;;;;;39.17;28.08;;;;;;;8.00;nan;102141.44;5015130;28;20026;-43
2023/04/08 00:05:52;;;;;;;39.95;28.05;;;;;;;7.98;nan;102154.53;5014665;28;20044;-43
2023/04/08 00:08:18;;;;;;;43.00;28.20;;;;;;;8.32;nan;102211.34;5014763;28;20117;-44
2023/04/08 00:10:43;;;;;;;43.80;28.00;;;;;;;8.32;nan;102211.34;5015213;28;20034;-44
2023/04/08 00:13:08;;;;;;;42.75;27.75;;;;;;;7.99;nan;102153.66;5014748;28;20120;-44
2023/04/08 00:15:34;;;;;;;44.17;28.85;;;;;;;8.27;nan;102205.22;5013905;28;20061;-43
2023/04/08 00:18:00;;;;;;;44.55;29.42;;;;;;;8.26;nan;102202.59;5014611;28;20040;-44
2023/04/08 00:20:26;;;;;;;42.90;29.60;;;;;;;8.26;nan;102207.84;5014807;28;20034;-44
2023/04/08 00:22:51;;;;;;;45.50;30.45;;;;;;;8.26;nan;102205.22;5014559;28;20038;-45
2023/04/08 00:25:16;;;;;;;45.45;30.85;;;;;;;8.27;nan;102206.94;5015007;28;20029;-43
2023/04/08 00:27:42;;;;;;;45.58;29.98;;;;;;;7.96;nan;102156.28;5014483;28;20402;-43
2023/04/08 00:30:08;;;;;;;47.05;29.73;;;;;;;8.24;nan;102204.31;5013860;28;20033;-43
2023/04/08 00:32:33;;;;;;;51.92;31.92;;;;;;;7.96;nan;102161.53;5014527;28;20030;-42
2023/04/08 00:34:59;;;;;;;45.92;29.40;;;;;;;8.26;nan;102203.44;5013197;28;20100;-44
2023/04/08 00:37:24;;;;;;;48.65;31.35;;;;;;;7.98;nan;102153.63;5014265;28;20481;-42
2023/04/08 00:39:52;;;;;;;46.53;30.85;;;;;;;8.26;nan;102208.69;5014670;28;20085;-43
2023/04/08 00:42:17;;;;;;;48.63;32.10;;;;;;;7.99;nan;102152.78;5014624;28;20087;-42
2023/04/08 00:44:42;;;;;;;53.28;32.47;;;;;;;8.26;nan;102211.31;5014546;28;20121;-42
2023/04/08 00:47:11;;;;;;;47.38;32.03;;;;;;;8.24;nan;102209.56;5013377;28;20033;-43
2023/04/08 00:49:37;;;;;;;49.38;32.40;;;;;;;7.93;nan;102154.53;5013174;28;20088;-42
2023/04/08 00:52:02;;;;;;;52.45;33.15;;;;;;;8.17;nan;102195.56;5012896;28;20033;-43
2023/04/08 00:54:28;;;;;;;52.83;33.28;;;;;;;8.26;nan;102207.84;5014280;28;20385;-44
2023/04/08 00:56:53;;;;;;;56.08;34.38;;;;;;;8.26;nan;102213.09;5013189;28;20038;-43
2023/04/08 00:59:18;;;;;;;60.63;34.25;;;;;;;8.23;nan;102210.47;5014265;28;20076;-43
2023/04/08 01:01:51;;;;;;;59.42;36.05;;;;;;;7.92;nan;102162.38;5013949;28;20440;-43
2023/04/08 01:04:44;;;;;;;55.47;33.35;;;;;;;8.20;nan;102215.72;5012267;28;20038;-43
2023/04/08 01:07:31;;;;;;;56.45;33.63;;;;;;;7.87;nan;102170.28;5013890;28;20481;-43
2023/04/08 01:10:04;;;;;;;60.95;35.00;;;;;;;7.88;nan;102163.28;5013883;28;20034;-43
2023/04/08 01:12:32;;;;;;;57.13;34.55;;;;;;;8.12;nan;102202.56;5012589;28;20103;-43
2023/04/08 01:15:05;;;;;;;59.28;35.38;;;;;;;8.17;nan;102215.72;5013543;28;20029;-43
2023/04/08 01:17:31;;;;;;;64.40;35.53;;;;;;;8.18;nan;102215.69;5012617;28;20041;-44
2023/04/08 01:19:59;;;;;;;62.67;36.75;;;;;;;8.08;nan;102208.72;5013516;28;20030;-44
2023/04/08 01:22:45;;;;;;;61.33;35.47;;;;;;;8.19;nan;102232.31;5008185;28;20045;-43
2023/04/08 01:25:17;;;;;;;64.88;34.88;;;;;;;7.88;nan;102163.28;5009062;28;20482;-44
2023/04/08 01:27:43;;;;;;;65.60;36.63;;;;;;;8.16;nan;102214.81;4992649;28;20508;-44
2023/04/08 01:30:09;;;;;;;62.30;35.80;;;;;;;8.17;nan;102216.56;4992675;28;20038;-45
2023/04/08 01:32:35;;;;;;;66.22;36.85;;;;;;;8.02;nan;102200.84;4993960;28;20536;-43
2023/04/08 01:35:01;;;;;;;64.03;36.60;;;;;;;8.14;nan;102226.19;5009098;28;20085;-44
2023/04/08 01:37:27;;;;;;;64.90;36.05;;;;;;;8.12;nan;102220.06;4993688;28;20034;-44
2023/04/08 01:39:54;;;;;;;72.30;37.97;;;;;;;7.76;nan;102172.00;5003962;28;20052;-44
2023/04/08 01:42:21;;;;;;;68.63;36.65;;;;;;;7.72;nan;102157.16;4992277;28;20430;-44
2023/04/08 01:44:48;;;;;;;67.95;37.78;;;;;;;8.07;nan;102225.31;4992340;28;20041;-43
2023/04/08 01:47:14;;;;;;;68.20;36.55;;;;;;;8.06;nan;102234.03;4993602;28;20066;-43
2023/04/08 01:49:39;;;;;;;69.63;37.42;;;;;;;7.81;nan;102179.88;4993438;28;20038;-44
2023/04/08 01:52:05;;;;;;;72.63;38.22;;;;;;;8.00;nan;102220.94;4993530;28;20035;-45
2023/04/08 01:54:30;;;;;;;69.50;36.47;;;;;;;7.77;nan;102179.00;4993483;28;20068;-45
2023/04/08 01:56:56;;;;;;;75.13;37.53;;;;;;;8.02;nan;102227.06;5001030;28;20045;-43
2023/04/08 01:59:23;;;;;;;68.07;35.63;;;;;;;7.75;nan;102193.84;4992374;28;20038;-43
2023/04/08 02:01:49;;;;;;;80.68;39.20;;;;;;;7.73;nan;102182.50;4992101;28;20449;-45
2023/04/08 02:04:14;;;;;;;75.78;38.65;;;;;;;7.95;nan;102230.56;4992073;28;20034;-44
2023/04/08 02:06:40;;;;;;;74.80;37.20;;;;;;;7.95;nan;102225.31;4991781;28;20042;-44
2023/04/08 02:09:06;;;;;;;77.07;38.42;;;;;;;7.94;nan;102229.69;4992026;28;20045;-44
2023/04/08 02:11:31;;;;;;;77.28;38.33;;;;;;;7.83;nan;102209.56;4993101;28;20042;-45
2023/04/08 02:13:57;;;;;;;66.63;35.92;;;;;;;7.89;nan;102226.19;5001690;28;20393;-43
2023/04/08 02:16:52;;;;;;;77.07;38.80;;;;;;;7.88;nan;102224.44;4995285;28;20350;-43
2023/04/08 02:19:28;;;;;;;80.68;38.95;;;;;;;7.56;nan;102181.59;5004638;28;20132;-43
2023/04/08 02:22:01;;;;;;;82.60;38.63;;;;;;;7.82;nan;102223.56;5012896;28;20030;-44
2023/04/08 02:24:28;;;;;;;85.10;38.80;;;;;;;7.82;nan;102234.06;5011262;28;20460;-44
2023/04/08 02:26:54;;;;;;;75.75;38.47;;;;;;;7.78;nan;102227.06;5011120;28;20104;-43
2023/04/08 02:29:20;;;;;;;73.03;36.63;;;;;;;7.75;nan;102232.28;5002671;28;20456;-43
2023/04/08 02:31:47;;;;;;;82.32;39.75;;;;;;;7.72;nan;102224.41;4991618;28;20466;-44
2023/04/08 02:34:13;;;;;;;79.13;38.33;;;;;;;7.38;nan;102178.97;4991769;28;20056;-43
2023/04/08 02:36:39;;;;;;;88.18;40.35;;;;;;;7.67;nan;102224.44;4991656;28;20462;-44
2023/04/08 02:39:05;;;;;;;80.97;39.22;;;;;;;7.60;nan;102216.53;4975805;28;20038;-44
2023/04/08 02:41:31;;;;;;;79.22;39.97;;;;;;;7.71;nan;102239.25;4991286;28;20474;-45
2023/04/08 02:43:56;;;;;;;79.80;39.72;;;;;;;7.42;nan;102177.19;4992912;28;20038;-44
2023/04/08 02:46:22;;;;;;;82.07;39.80;;;;;;;7.51;nan;102187.69;5007409;28;20046;-45
2023/04/08 02:48:47;;;;;;;85.95;40.60;;;;;;;7.59;nan;102207.78;4992238;28;20066;-44
2023/04/08 02:51:12;;;;;;;90.85;41.20;;;;;;;7.75;nan;102235.78;4992969;28;20049;-44
2023/04/08 02:53:38;;;;;;;80.72;39.67;;;;;;;7.49;nan;102185.09;4992395;28;20132;-44
2023/04/08 02:56:03;;;;;;;87.80;40.85;;;;;;;7.81;nan;102243.66;4992822;28;20041;-44
2023/04/08 02:58:29;;;;;;;92.07;40.80;;;;;;;7.67;nan;102213.06;4991267;28;20037;-45
2023/04/08 03:00:55;;;;;;;84.45;37.55;;;;;;;7.51;nan;102196.44;4992579;28;20045;-44
2023/04/08 03:03:26;;;;;;;93.28;39.92;;;;;;;7.68;nan;102230.50;4992475;28;21099;-43
2023/04/08 03:05:52;;;;;;;84.93;39.80;;;;;;;7.74;nan;102251.50;4991466;28;20389;-44
2023/04/08 03:08:18;;;;;;;86.28;40.13;;;;;;;7.43;nan;102190.31;4991214;28;20030;-44
2023/04/08 03:10:43;;;;;;;87.07;39.92;;;;;;;7.35;nan;102194.66;4992914;28;20097;-44
2023/04/08 03:13:08;;;;;;;86.68;39.60;;;;;;;7.31;nan;102201.63;4991345;28;20038;-44
2023/04/08 03:15:34;;;;;;;82.38;39.65;;;;;;;7.53;nan;102246.22;4992450;28;20034;-43
2023/04/08 03:17:59;;;;;;;86.05;39.20;;;;;;;7.51;nan;102247.97;4991602;28;20038;-44
2023/04/08 03:20:24;;;;;;;87.55;40.70;;;;;;;7.45;nan;102255.78;4992181;28;20071;-44
2023/04/08 03:22:50;;;;;;;88.43;39.03;;;;;;;7.18;nan;102212.09;4992270;28;20516;-43
2023/04/08 03:25:15;;;;;;;90.47;40.53;;;;;;;7.28;nan;102248.78;4991177;28;20039;-43
2023/04/08 03:27:41;;;;;;;87.97;39.85;;;;;;;6.99;nan;102200.66;4995643;28;20279;-43
2023/04/08 03:30:07;;;;;;;86.28;38.22;;;;;;;7.14;nan;102223.41;4996054;28;20121;-43
2023/04/08 03:32:32;;;;;;;94.03;40.70;;;;;;;7.01;nan;102204.16;4995003;28;20397;-43
2023/04/08 03:34:57;;;;;;;94.28;39.13;;;;;;;7.35;nan;102266.25;4996647;28;20043;-44
2023/04/08 03:37:23;;;;;;;90.82;40.95;;;;;;;7.38;nan;102267.16;5014114;28;20042;-45
2023/04/08 03:39:48;;;;;;;91.57;40.85;;;;;;;7.06;nan;102204.19;5015427;28;20052;-43
2023/04/08 03:42:13;;;;;;;82.63;40.13;;;;;;;7.43;nan;102275.88;5015531;28;20052;-46
2023/04/08 03:44:39;;;;;;;87.13;40.53;;;;;;;7.29;nan;102247.91;5015291;28;20125;-44
2023/04/08 03:47:04;;;;;;;100.63;43.90;;;;;;;7.39;nan;102254.03;5015383;28;20038;-45
2023/04/08 03:49:29;;;;;;;100.18;43.80;;;;;;;7.45;nan;102264.53;5015531;28;20042;-45
2023/04/08 03:51:54;;;;;;;111.45;44.78;;;;;;;7.25;nan;102242.66;4997617;28;20129;-45
2023/04/08 03:54:20;;;;;;;120.45;46.00;;;;;;;7.43;nan;102273.25;5013040;28;20046;-45
2023/04/08 03:56:45;;;;;;;114.32;45.65;;;;;;;7.16;nan;102222.53;5015489;28;20044;-43
2023/04/08 03:59:10;;;;;;;100.95;45.00;;;;;;;7.45;nan;102284.63;5015371;28;20119;-43
2023/04/08 04:01:36;;;;;;;101.60;43.03;;;;;;;7.42;nan;102274.13;5015038;28;20109;-43
2023/04/08 04:04:01;;;;;;;138.23;47.33;;;;;;;7.38;nan;102278.50;5015426;28;20424;-44
2023/04/08 04:06:26;;;;;;;115.93;48.42;;;;;;;7.09;nan;102226.00;5013958;28;20112;-43
2023/04/08 04:08:53;;;;;;;127.55;46.00;;;;;;;7.15;nan;102235.63;5013923;28;20041;-44
2023/04/08 04:11:20;;;;;;;117.55;48.03;;;;;;;7.08;nan;102226.00;4993337;28;20047;-43
2023/04/08 04:13:45;;;;;;;174.32;50.03;;;;;;;7.10;nan;102239.97;4995503;28;20034;-43
2023/04/08 04:16:10;;;;;;;141.88;49.35;;;;;;;7.21;nan;102256.59;4994651;28;20120;-44
2023/04/08 04:18:36;;;;;;;218.95;48.22;;;;;;;7.35;nan;102299.44;4995526;28;20081;-44
2023/04/08 04:21:04;;;;;;;331.20;50.60;;;;;;;7.29;nan;102300.31;4995497;28;20038;-44
2023/04/08 04:23:30;;;;;;;273.25;50.90;;;;;;;6.95;nan;102238.16;4995019;28;20449;-45
2023/04/08 04:25:55;;;;;;;208.82;45.78;;;;;;;7.23;nan;102305.50;4994899;28;20097;-45
2023/04/08 04:28:20;;;;;;;253.52;49.97;;;;;;;7.18;nan;102314.22;5007340;28;20096;-44
2023/04/08 04:30:46;;;;;;;431.13;57.63;;;;;;;6.93;nan;102257.34;5013493;28;20041;-44
2023/04/08 04:33:11;;;;;;;355.90;48.97;;;;;;;7.15;nan;102309.81;5014725;28;20037;-45
2023/04/08 04:35:38;;;;;;;261.85;44.85;;;;;;;6.80;nan;102256.38;5014523;28;20088;-44
2023/04/08 04:38:09;;;;;;;401.70;51.53;;;;;;;7.10;nan;102314.16;5013001;28;20494;-45
2023/04/08 04:40:35;;;;;;;220.35;45.80;;;;;;;6.82;nan;102270.38;5014420;28;20073;-43
2023/04/08 04:43:00;;;;;;;327.10;49.88;;;;;;;7.07;nan;102311.53;5014695;28;20426;-44
2023/04/08 04:45:25;;;;;;;357.23;51.40;;;;;;;7.07;nan;102313.25;5013229;28;20029;-45
2023/04/08 04:47:51;;;;;;;515.25;61.80;;;;;;;6.99;nan;102307.13;5014158;28;20117;-44
2023/04/08 04:50:16;;;;;;;291.85;50.70;;;;;;;6.76;nan;102268.59;5014241;28;20030;-44
2023/04/08 04:52:41;;;;;;;487.83;60.22;;;;;;;7.04;nan;102328.94;5014134;28;20033;-44
2023/04/08 04:55:07;;;;;;;379.90;58.20;;;;;;;6.77;nan;102282.56;5014175;28;20500;-45
2023/04/08 04:57:33;;;;;;;208.27;47.13;;;;;;;6.42;nan;102224.75;5014044;28;20026;-45
2023/04/08 04:59:58;;;;;;;675.15;76.03;;;;;;;6.71;nan;102296.47;5014017;28;20029;-44
2023/04/08 05:02:23;;;;;;;574.60;66.22;;;;;;;6.69;nan;102297.31;5014398;28;20084;-44
2023/04/08 05:04:48;;;;;;;600.50;75.28;;;;;;;6.82;nan;102333.19;5013151;28;20508;-44
2023/04/08 05:07:14;;;;;;;414.35;54.83;;;;;;;6.57;nan;102282.41;5013738;28;20046;-44
2023/04/08 05:09:39;;;;;;;253.00;49.33;;;;;;;6.89;nan;102341.97;5014188;28;20065;-44
2023/04/08 05:12:05;;;;;;;595.97;69.60;;;;;;;6.86;nan;102336.72;5013953;28;20033;-43
2023/04/08 05:14:30;;;;;;;507.42;68.15;;;;;;;6.55;nan;102284.16;5013674;28;20458;-44
2023/04/08 05:16:56;;;;;;;668.28;80.90;;;;;;;6.70;nan;102317.41;5013648;28;20057;-43
2023/04/08 05:19:21;;;;;;;511.13;70.25;;;;;;;6.85;nan;102346.31;5013744;28;20045;-43
2023/04/08 05:21:47;;;;;;;269.42;52.22;;;;;;;6.90;nan;102343.69;4998757;28;20039;-43
2023/04/08 05:24:12;;;;;;;394.02;58.95;;;;;;;6.94;nan;102345.50;4994010;28;20470;-43
2023/04/08 05:26:37;;;;;;;442.20;56.15;;;;;;;6.88;nan;102345.44;4993696;28;20082;-44
2023/04/08 05:29:03;;;;;;;450.33;61.60;;;;;;;6.83;nan;102339.31;4993955;28;20062;-43
2023/04/08 05:31:28;;;;;;;375.33;56.00;;;;;;;6.89;nan;102347.22;4992461;28;20038;-43
2023/04/08 05:33:53;;;;;;;344.27;54.72;;;;;;;6.54;nan;102287.63;4994182;28;20124;-43
2023/04/08 05:36:19;;;;;;;513.10;63.45;;;;;;;6.86;nan;102349.81;4994039;28;20401;-43
2023/04/08 05:38:44;;;;;;;628.00;75.28;;;;;;;6.57;nan;102302.47;5004513;28;20038;-44
2023/04/08 05:41:10;;;;;;;522.95;67.07;;;;;;;6.87;nan;102362.00;5013269;28;20382;-44
2023/04/08 05:43:35;;;;;;;181.90;44.95;;;;;;;6.90;nan;102359.41;5013294;28;20038;-43
2023/04/08 05:46:08;;;;;;;427.30;62.20;;;;;;;6.66;nan;102323.47;5013908;28;20041;-44
2023/04/08 05:48:33;;;;;;;404.45;62.80;;;;;;;6.96;nan;102372.53;5011631;28;20092;-45
2023/04/08 05:50:59;;;;;;;615.53;77.45;;;;;;;6.99;nan;102370.81;5013360;28;20069;-44
2023/04/08 05:53:25;;;;;;;593.55;74.78;;;;;;;7.00;nan;102369.97;5010821;28;20041;-44
2023/04/08 05:55:50;;;;;;;580.33;80.78;;;;;;;6.76;nan;102315.72;4992392;28;20089;-45
2023/04/08 05:58:16;;;;;;;237.80;57.38;;;;;;;6.76;nan;102323.56;4991909;28;20126;-45
2023/04/08 06:00:41;;;;;;;190.38;55.33;;;;;;;6.76;nan;102322.69;4993423;28;20038;-45
2023/04/08 06:03:06;;;;;;;157.48;55.70;;;;;;;6.79;nan;102330.56;4991996;28;20121;-44
2023/04/08 06:05:32;;;;;;;162.00;56.13;;;;;;;6.87;nan;102325.34;4993602;28;20034;-45
2023/04/08 06:07:57;;;;;;;153.10;55.63;;;;;;;7.15;nan;102367.41;4993217;28;20038;-44
2023/04/08 06:10:22;;;;;;;151.63;55.85;;;;;;;7.28;nan;102389.31;4993106;28;20433;-45
2023/04/08 06:12:47;;;;;;;157.55;56.03;;;;;;;7.35;nan;102386.75;4992642;28;20605;-45
2023/04/08 06:15:13;;;;;;;164.35;56.00;;;;;;;7.43;nan;102399.00;4991835;28;20030;-45
2023/04/08 06:17:38;;;;;;;144.57;53.75;;;;;;;7.39;nan;102382.41;4992592;28;20035;-45
2023/04/08 06:20:05;;;;;;;121.22;50.53;;;;;;;7.48;nan;102392.94;4992976;28;20121;-46
2023/04/08 06:22:30;;;;;;;129.52;51.95;;;;;;;7.56;nan;102398.22;4993123;28;20061;-45
2023/04/08 06:24:55;;;;;;;122.35;50.72;;;;;;;7.28;nan;102337.81;4991674;28;20486;-45
2023/04/08 06:27:21;;;;;;;118.43;49.80;;;;;;;7.18;nan;102329.94;4991251;28;20050;-45
2023/04/08 06:29:46;;;;;;;118.40;49.72;;;;;;;7.53;nan;102379.88;5000475;28;20117;-45
2023/04/08 06:32:12;;;;;;;105.85;48.22;;;;;;;7.69;nan;102406.13;5012841;28;20052;-45
2023/04/08 06:34:38;;;;;;;106.40;47.47;;;;;;;7.76;nan;102396.56;5012311;28;20045;-42
2023/04/08 06:37:03;;;;;;;96.95;44.75;;;;;;;7.50;nan;102367.59;5012077;28;20034;-44
2023/04/08 06:39:29;;;;;;;98.15;45.65;;;;;;;7.52;nan;102351.91;5012217;28;20092;-44
2023/04/08 06:41:54;;;;;;;99.15;46.42;;;;;;;7.89;nan;102414.94;5012420;28;20485;-44
2023/04/08 06:44:20;;;;;;;87.47;43.13;;;;;;;7.67;nan;102368.56;5012265;28;20088;-43
2023/04/08 06:46:45;;;;;;;92.15;43.60;;;;;;;7.99;nan;102422.84;5010814;28;20038;-44
2023/04/08 06:49:11;;;;;;;80.32;39.42;;;;;;;8.04;nan;102414.13;5012415;28;20040;-44
2023/04/08 06:51:37;;;;;;;79.28;39.50;;;;;;;8.11;nan;102409.78;5010478;28;20034;-43
2023/04/08 06:54:02;;;;;;;87.63;40.72;;;;;;;7.89;nan;102364.25;5012103;28;20044;-44
2023/04/08 06:56:27;;;;;;;87.22;40.00;;;;;;;8.22;nan;102418.53;5011362;28;20117;-45
2023/04/08 06:58:53;;;;;;;116.70;40.55;;;;;;;8.22;nan;102424.69;5012325;28;20044;-43
2023/04/08 07:01:18;;;;;;;156.90;37.83;;;;;;;7.88;nan;102368.63;5013605;28;20080;-43
2023/04/08 07:03:43;;;;;;;191.90;40.38;;;;;;;7.83;nan;102369.47;5008231;28;20395;-43
2023/04/08 07:06:09;;;;;;;108.30;38.03;;;;;;;8.24;nan;102435.16;4995453;28;20457;-44
2023/04/08 07:08:35;;;;;;;190.32;40.10;;;;;;;8.30;nan;102440.44;4996521;28;20026;-43
2023/04/08 07:11:01;;;;;;;84.03;35.13;;;;;;;8.32;nan;102430.81;4994502;28;20508;-44
2023/04/08 07:13:26;;;;;;;124.53;35.63;;;;;;;8.13;nan;102381.81;4996602;28;20125;-43
2023/04/08 07:15:52;;;;;;;280.95;39.13;;;;;;;8.43;nan;102450.13;4996548;28;20468;-44
2023/04/08 07:18:17;;;;;;;144.23;33.88;;;;;;;8.06;nan;102393.13;4996592;28;20506;-43
2023/04/08 07:20:42;;;;;;;87.10;32.78;;;;;;;8.46;nan;102448.34;4995293;28;20038;-44
2023/04/08 07:23:08;;;;;;;132.93;33.75;;;;;;;8.49;nan;102466.72;4995851;28;20038;-44
2023/04/08 07:25:34;;;;;;;59.90;31.33;;;;;;;8.52;nan;102449.25;4995022;28;20038;-43
2023/04/08 07:28:00;;;;;;;87.32;28.85;;;;;;;8.52;nan;102468.50;4996093;28;20058;-45
2023/04/08 07:30:25;;;;;;;215.70;31.67;;;;;;;8.04;nan;102408.88;4996117;28;20037;-44
2023/04/08 07:32:51;;;;;;;113.80;30.30;;;;;;;8.43;nan;102476.34;4996301;28;20066;-43
2023/04/08 07:35:22;;;;;;;120.47;29.15;;;;;;;7.91;nan;102407.97;4995031;28;20145;-44
2023/04/08 07:37:48;;;;;;;150.10;28.17;;;;;;;8.26;nan;102470.16;4995368;28;20485;-43
2023/04/08 07:40:13;;;;;;;58.60;24.77;;;;;;;8.28;nan;102477.19;4995879;28;20129;-44
2023/04/08 07:42:39;;;;;;;151.00;26.45;;;;;;;8.19;nan;102478.88;4995978;28;20481;-45
2023/04/08 07:45:04;;;;;;;125.18;25.02;;;;;;;8.04;nan;102476.19;4996048;28;20104;-44
2023/04/08 07:47:30;;;;;;;84.18;22.75;;;;;;;7.93;nan;102489.25;4995763;28;20125;-45
2023/04/08 07:49:55;;;;;;;52.50;21.83;;;;;;;7.99;nan;102477.91;5010979;28;20030;-44
2023/04/08 07:52:20;;;;;;;69.80;23.83;;;;;;;7.79;nan;102441.13;4996173;28;20093;-46
2023/04/08 07:54:46;;;;;;;40.58;23.73;;;;;;;8.18;nan;102479.72;4994590;28;20034;-44
2023/04/08 07:57:11;;;;;;;60.22;24.17;;;;;;;8.28;nan;102474.56;5010469;28;20050;-45
2023/04/08 07:59:36;;;;;;;99.00;23.42;;;;;;;8.32;nan;102473.69;4995674;28;20087;-45
2023/04/08 08:02:02;;;;;;;51.88;24.25;;;;;;;8.38;nan;102488.56;5010960;28;20042;-44
2023/04/08 08:04:27;;;;;;;42.67;22.10;;;;;;;8.41;nan;102484.22;4995369;28;20050;-45
2023/04/08 08:06:52;;;;;;;35.65;22.35;;;;;;;8.23;nan;102420.31;4995463;28;20042;-44
2023/04/08 08:09:18;;;;;;;30.60;20.80;;;;;;;8.63;nan;102493.03;4994860;28;20035;-45
2023/04/08 08:11:43;;;;;;;59.70;22.45;;;;;;;8.19;nan;102436.91;5011392;28;20065;-43
2023/04/08 08:14:10;;;;;;;32.80;21.02;;;;;;;8.03;nan;102443.84;5014427;28;20088;-44
2023/04/08 08:16:37;;;;;;;33.30;23.65;;;;;;;7.84;nan;102460.38;5014905;28;20049;-45
2023/04/08 08:19:04;;;;;;;65.07;24.85;;;;;;;7.97;nan;102498.03;5013621;28;20038;-44
2023/04/08 08:21:30;;;;;;;30.17;23.80;;;;;;;8.23;nan;102520.84;5013807;28;20042;-45
2023/04/08 08:23:56;;;;;;;47.67;26.15;;;;;;;8.35;nan;102525.28;5014598;28;20034;-44
2023/04/08 08:26:21;;;;;;;31.38;23.88;;;;;;;8.15;nan;102470.09;5000845;28;20058;-45
2023/04/08 08:28:47;;;;;;;33.88;23.00;;;;;;;8.60;nan;102510.50;5034679;28;20029;-45
2023/04/08 08:31:12;;;;;;;26.70;23.73;;;;;;;8.89;nan;102514.94;5027334;28;20033;-45
2023/04/08 08:33:38;;;;;;;29.17;22.52;;;;;;;8.73;nan;102470.25;5014492;28;20470;-45
2023/04/08 08:36:04;;;;;;;31.50;22.02;;;;;;;9.06;nan;102533.31;5013349;28;20390;-45
2023/04/08 08:38:30;;;;;;;25.20;22.55;;;;;;;9.23;nan;102528.94;5014475;28;20064;-44
2023/04/08 08:40:59;;;;;;;23.83;21.42;;;;;;;9.16;nan;102508.84;5032686;28;20073;-45
2023/04/08 08:43:25;;;;;;;26.48;23.08;;;;;;;9.24;nan;102532.47;5025453;28;20068;-44
2023/04/08 08:45:50;;;;;;;27.20;24.30;;;;;;;9.25;nan;102545.59;5034100;28;20065;-45
2023/04/08 08:48:16;;;;;;;25.20;22.63;;;;;;;9.51;nan;102546.47;5034386;28;20083;-45
2023/04/08 08:50:42;;;;;;;31.30;25.80;;;;;;;9.29;nan;102497.41;5033687;28;20409;-44
2023/04/08 08:53:07;;;;;;;29.95;26.80;;;;;;;9.34;nan;102494.81;5032086;28;20366;-44
2023/04/08 08:55:32;;;;;;;30.55;27.27;;;;;;;9.81;nan;102547.28;5033578;28;20397;-45
2023/04/08 08:57:59;;;;;;;31.80;28.38;;;;;;;9.61;nan;102503.50;5033041;28;20427;-44
2023/04/08 09:00:35;;;;;;;31.77;27.88;;;;;;;10.12;nan;102539.31;5012301;28;20087;-44
2023/04/08 09:03:21;;;;;;;30.15;26.92;;;;;;;10.09;nan;102497.22;5013393;28;20037;-44
2023/04/08 09:05:48;;;;;;;30.75;27.55;;;;;;;10.52;nan;102536.53;5013796;28;20106;-45
2023/04/08 09:08:34;;;;;;;31.55;28.25;;;;;;;11.17;nan;102536.09;5012817;28;20083;-44
2023/04/08 09:11:25;;;;;;;29.08;26.13;;;;;;;12.05;nan;102549.34;4995499;28;20390;-44
2023/04/08 09:13:51;;;;;;;28.23;25.33;;;;;;;12.60;nan;102556.59;5012311;28;20053;-45
2023/04/08 09:16:17;;;;;;;27.33;24.70;;;;;;;13.59;nan;102561.22;4997786;28;20097;-45
2023/04/08 09:18:47;;;;;;;27.13;24.38;;;;;;;14.70;nan;102560.78;4994167;28;20095;-46
2023/04/08 09:21:15;;;;;;;24.55;22.23;;;;;;;15.50;nan;102561.53;4993078;28;20432;-46
2023/04/08 09:23:49;;;;;;;21.45;19.48;;;;;;;15.53;nan;102608.34;4993357;28;20030;-46
2023/04/08 09:26:23;;;;;;;20.50;18.55;;;;;;;15.48;nan;102603.16;4994002;28;20073;-46
2023/04/08 09:28:57;;;;;;;20.48;18.48;;;;;;;15.37;nan;102599.00;4994348;28;20034;-47
2023/04/08 09:31:25;;;;;;;20.52;18.58;;;;;;;15.30;nan;102611.53;4994203;28;20031;-47
2023/04/08 09:33:52;;;;;;;18.30;16.67;;;;;;;15.95;nan;102607.25;5008508;28;20083;-47
2023/04/08 09:36:18;;;;;;;17.27;15.70;;;;;;;16.38;nan;102600.75;5013503;28;20044;-46
2023/04/08 09:38:44;;;;;;;17.00;15.40;;;;;;;16.66;nan;102561.84;5012128;28;20116;-47
2023/04/08 09:41:13;;;;;;;15.32;14.00;;;;;;;16.64;nan;102559.22;5013186;28;20038;-52
2023/04/08 09:43:53;;;;;;;16.65;15.15;;;;;;;16.34;nan;102611.47;5013555;28;20371;-54
2023/04/08 09:46:25;;;;;;;17.13;15.50;;;;;;;15.82;nan;102552.72;5013707;28;20401;-51
2023/04/08 09:49:20;;;;;;;16.77;15.07;;;;;;;17.01;nan;102598.88;5012296;28;20038;-52
2023/04/08 09:52:09;;;;;;;16.35;14.85;;;;;;;16.78;nan;102599.56;4992379;28;20050;-52
2023/04/08 09:54:52;;;;;;;15.00;13.68;;;;;;;16.71;nan;102546.63;4976316;28;20033;-52
2023/04/08 09:57:38;;;;;;;15.50;14.10;;;;;;;17.45;nan;102608.94;4993635;28;20030;-50
2023/04/08 10:00:12;;;;;;;16.23;14.85;;;;;;;17.81;nan;102603.34;4992263;28;20030;-48
2023/04/08 10:02:58;;;;;;;15.48;13.95;;;;;;;18.05;nan;102612.25;4994007;28;20359;-47
2023/04/08 10:05:24;;;;;;;15.70;14.30;;;;;;;17.16;nan;102555.78;4993611;28;20044;-47
2023/04/08 10:07:50;;;;;;;15.70;14.30;;;;;;;17.75;nan;102561.81;5007513;28;20038;-48
2023/04/08 10:10:16;;;;;;;15.75;14.35;;;;;;;17.93;nan;102542.50;4993120;28;20053;-52
2023/04/08 10:12:42;;;;;;;14.20;12.93;;;;;;;18.52;nan;102620.31;5008855;28;20038;-47
2023/04/08 10:15:27;;;;;;;15.70;14.30;;;;;;;18.80;nan;102611.25;4993446;28;20049;-50
2023/04/08 10:17:53;;;;;;;15.80;14.40;;;;;;;18.35;nan;102558.72;5008584;28;20031;-54
2023/04/08 10:20:33;;;;;;;14.65;13.30;;;;;;;18.14;nan;102606.59;4991942;28;20446;-46
2023/04/08 10:23:02;;;;;;;16.08;14.63;;;;;;;18.65;nan;102599.38;4994056;28;20072;-47
2023/04/08 10:25:32;;;;;;;15.68;14.35;;;;;;;18.87;nan;102556.72;5012910;28;20104;-51
2023/04/08 10:28:02;;;;;;;14.35;13.05;;;;;;;19.48;nan;102557.78;5012631;28;20054;-51
2023/04/08 10:30:27;;;;;;;14.20;12.77;;;;;;;19.81;nan;102615.13;5011664;28;20045;-54
2023/04/08 10:32:58;;;;;;;13.18;12.05;;;;;;;19.40;nan;102599.97;5012882;28;20022;-47
2023/04/08 10:35:41;;;;;;;13.43;12.18;;;;;;;18.60;nan;102549.81;5011171;28;20079;-46
2023/04/08 10:38:06;;;;;;;13.48;12.20;;;;;;;19.55;nan;102600.22;5012716;28;20049;-48
2023/04/08 10:40:37;;;;;;;13.38;11.98;;;;;;;19.92;nan;102593.28;5001440;28;20450;-45
2023/04/08 10:43:04;;;;;;;14.02;12.63;;;;;;;20.21;nan;102603.56;4992929;28;20034;-47
2023/04/08 10:45:29;;;;;;;13.07;11.88;;;;;;;20.15;nan;102602.03;4991624;28;20030;-48
2023/04/08 10:47:55;;;;;;;14.00;12.70;;;;;;;19.85;nan;102599.84;4992911;28;20624;-49
2023/04/08 10:50:22;;;;;;;13.38;12.13;;;;;;;20.39;nan;102584.06;4992917;28;20125;-47
2023/04/08 10:52:52;;;;;;;15.10;12.48;;;;;;;20.68;nan;102596.94;4993053;28;20117;-50
2023/04/08 10:55:36;;;;;;;13.27;12.05;;;;;;;20.49;nan;102605.91;4991824;28;20040;-48
2023/04/08 10:58:08;;;;;;;13.30;12.00;;;;;;;20.60;nan;102558.13;5012106;28;20108;-52
2023/04/08 11:00:36;;;;;;;13.07;11.70;;;;;;;20.71;nan;102595.94;5011382;28;20087;-51
2023/04/08 11:03:08;;;;;;;12.88;11.57;;;;;;;20.43;nan;102599.00;5010953;28;20033;-49
2023/04/08 11:05:35;;;;;;;11.77;10.68;;;;;;;20.94;nan;102592.16;5010848;28;20026;-49
2023/04/08 11:08:01;;;;;;;12.52;11.20;;;;;;;20.76;nan;102551.94;5010985;28;20137;-49
2023/04/08 11:10:30;;;;;;;12.23;11.02;;;;;;;21.20;nan;102557.84;5012076;28;20058;-48
2023/04/08 11:12:57;;;;;;;12.20;10.98;;;;;;;21.86;nan;102595.59;5007641;28;20394;-49
2023/04/08 11:15:25;;;;;;;12.32;11.23;;;;;;;21.72;nan;102584.69;4992911;28;20382;-54
2023/04/08 11:17:52;;;;;;;10.88;9.88;;;;;;;21.52;nan;102580.34;4992954;28;20113;-51
2023/04/08 11:20:17;;;;;;;12.55;10.65;;;;;;;22.07;nan;102593.59;4992879;28;20070;-51
2023/04/08 11:22:44;;;;;;;11.18;10.18;;;;;;;21.11;nan;102533.34;4992639;28;20088;-52
2023/04/08 11:25:10;;;;;;;11.80;10.60;;;;;;;21.36;nan;102592.78;4991313;28;20022;-54
2023/04/08 11:27:36;;;;;;;10.75;9.80;;;;;;;21.65;nan;102594.88;4992301;28;20520;-54
2023/04/08 11:30:02;;;;;;;10.85;9.75;;;;;;;22.00;nan;102584.16;4992100;28;20486;-52